Airfield :
LOGIN :

Register | Disclaimer

   EN    FR    IT 

 










Legend :    VFR   Marginal VFR   IFR   Intensive IFR   Very Intensive IFR
Visi :
Ceiling :
>= 8 km
>= 3000ft
5 to 8 km
1000 to 3000 ft
1500m to 5 km
500 to 1000 ft
800 to 1500m
200 to 500 ft
< 800m
< 200 ft
Symbols :   Thunderstorms  Fog  Heavy snow  Heavy precipitations  Wind > 20 kt
SIGMETs :     Misc.  Thunderstorms  Icing  Turbulence  Mountain Waves  Volcanic Ashes






- Airport Elevation : 726 ft
- IATA code : DIJ


LFSD - Dijon

CURRENT METAR :
  • 131600Z AUTO 22005KT 140V280 CAVOK 24/10 Q1013

EXPIRED METARs :
  • 131530Z AUTO 19007KT 160V250 CAVOK 23/09 Q1014
  • 131500Z AUTO 19006KT 110V250 CAVOK 24/11 Q1014
  • 131430Z AUTO 24005KT 190V310 CAVOK 23/10 Q1014
  • 131400Z AUTO 25006KT 150V300 CAVOK 23/10 Q1014
  • 131330Z AUTO 23006KT 160V270 CAVOK 23/09 Q1014
  • 131300Z AUTO 23007KT 160V280 CAVOK 24/11 Q1014
  • 131230Z AUTO 21005KT 160V290 CAVOK 22/10 Q1014
  • 131200Z AUTO VRB05KT CAVOK 23/11 Q1014
  • 131130Z AUTO 19004KT 150V260 CAVOK 20/11 Q1015

Expired Forecast.



MET'MAP, your aeronautical weather chart ! - Copyright ORBIFLY December 2007 - Disclaimer

ORBIFLY MET'MAP TEAM :

Programming & Development : Alexandra Zaïnal
Original concept : Baudouin d'Aumeries
Technical & hardware support : Manuel Goepfert
Assistance : Marc-Olivier Méhu




SOURCES & CREDITS :

   NOAA